createdAt,value
2022-10-11T00:00:39.885Z,13.8
2022-10-11T00:02:56.834Z,9.2
2022-10-11T00:05:13.470Z,9.8
2022-10-11T00:07:30.482Z,9.5
2022-10-11T00:09:47.562Z,9.4
2022-10-11T00:12:04.865Z,13.3
2022-10-11T00:14:22.373Z,13.4
2022-10-11T00:16:39.582Z,13.8
2022-10-11T00:18:57.093Z,12.6
2022-10-11T00:21:13.786Z,13.1
2022-10-11T00:23:30.995Z,9.1
2022-10-11T00:25:48.236Z,12.3
2022-10-11T00:28:05.839Z,13.5
2022-10-11T00:30:23.050Z,13.1
2022-10-11T00:32:40.603Z,14
2022-10-11T00:34:57.697Z,12.9
2022-10-11T00:37:14.676Z,12.9
2022-10-11T00:39:31.560Z,12.6
2022-10-11T00:41:48.618Z,8.9
2022-10-11T00:44:05.967Z,13.4
2022-10-11T00:46:23.390Z,12.8
2022-10-11T00:48:40.769Z,13.3
2022-10-11T00:50:58.028Z,12.3
2022-10-11T00:53:15.442Z,12.6
2022-10-11T00:55:32.598Z,13.1
2022-10-11T00:57:49.173Z,12.3
2022-10-11T01:00:06.340Z,8.5
2022-10-11T01:02:23.631Z,12.6
2022-10-11T01:04:41.269Z,12.6
2022-10-11T01:07:07.520Z,12.9
2022-10-11T01:09:24.684Z,12.6
2022-10-11T01:11:41.432Z,11.7
2022-10-11T01:13:58.445Z,8.4
2022-10-11T01:16:15.659Z,12.5
2022-10-11T01:18:32.619Z,12.4
2022-10-11T01:20:49.478Z,8.8
2022-10-11T01:23:06.799Z,11.9
2022-10-11T01:25:24.012Z,12.5
2022-10-11T01:27:41.277Z,12.9
2022-10-11T01:29:57.814Z,12.6
2022-10-11T01:32:14.383Z,8.4
2022-10-11T01:34:31.621Z,8.7
2022-10-11T01:36:48.817Z,12.4
2022-10-11T01:39:05.609Z,12.4
2022-10-11T01:41:22.636Z,8.7
2022-10-11T01:43:39.488Z,13.1
2022-10-11T01:45:56.189Z,8.6
2022-10-11T01:48:13.177Z,8.8
2022-10-11T01:50:30.214Z,8.6
2022-10-11T01:52:47.170Z,12.3
2022-10-11T01:55:21.493Z,8.8
2022-10-11T01:57:38.368Z,8.8
2022-10-11T01:59:55.542Z,8.6
2022-10-11T02:02:13.005Z,12.4
2022-10-11T02:04:30.322Z,12.6
2022-10-11T02:06:47.404Z,12.6
2022-10-11T02:09:08.033Z,12.3
2022-10-11T02:11:22.094Z,12.6
2022-10-11T02:13:39.121Z,11.4
2022-10-11T02:15:55.841Z,12.4
2022-10-11T02:18:12.385Z,8.3
2022-10-11T02:20:29.500Z,8.3
2022-10-11T02:22:46.761Z,12.1
2022-10-11T02:25:03.680Z,12.4
2022-10-11T02:27:20.745Z,8.3
2022-10-11T02:29:38.146Z,11.5
2022-10-11T02:31:54.583Z,7.8
2022-10-11T02:34:11.901Z,11.4
2022-10-11T02:36:29.223Z,12.4
2022-10-11T02:38:46.364Z,11.4
2022-10-11T02:41:03.621Z,11.6
2022-10-11T02:43:21.072Z,12.1
2022-10-11T02:45:38.265Z,12.1
2022-10-11T02:47:55.312Z,12
2022-10-11T02:50:12.635Z,11.3
2022-10-11T02:52:29.719Z,11.3
2022-10-11T02:54:47.082Z,12.2
2022-10-11T02:57:04.396Z,11.9
2022-10-11T02:59:21.558Z,11.4
2022-10-11T03:01:38.788Z,12.1
2022-10-11T03:03:55.895Z,11.9
2022-10-11T03:06:13.063Z,11.4
2022-10-11T03:08:30.402Z,12.1
2022-10-11T03:10:47.611Z,11.5
2022-10-11T03:13:04.738Z,11.7
2022-10-11T03:15:21.756Z,10.9
2022-10-11T03:17:51.990Z,8.2
2022-10-11T03:20:09.021Z,8.3
2022-10-11T03:22:26.351Z,11.8
2022-10-11T03:24:43.596Z,12.1
2022-10-11T03:27:00.805Z,12.3
2022-10-11T03:29:18.070Z,11.9
2022-10-11T03:31:35.412Z,11.1
2022-10-11T03:33:52.528Z,11.8
2022-10-11T03:36:09.746Z,13.1
2022-10-11T03:38:26.982Z,11.9
2022-10-11T03:40:44.508Z,12.2
2022-10-11T03:43:01.526Z,11.6
2022-10-11T03:45:18.754Z,11.8
2022-10-11T03:47:35.968Z,11.6
2022-10-11T03:49:53.232Z,11.3
2022-10-11T03:52:10.282Z,11.3
2022-10-11T03:54:27.593Z,11.1
2022-10-11T03:56:44.454Z,11.7
2022-10-11T03:59:01.393Z,7.9
2022-10-11T04:01:19.172Z,11.6
2022-10-11T04:03:35.890Z,11.3
2022-10-11T04:05:53.366Z,12.2
2022-10-11T04:08:12.254Z,11.6
2022-10-11T04:10:27.596Z,12.3
2022-10-11T04:12:44.872Z,12
2022-10-11T04:15:02.112Z,12.1
2022-10-11T04:17:19.392Z,12.1
2022-10-11T04:19:36.567Z,12.1
2022-10-11T04:21:53.717Z,11.5
2022-10-11T04:24:11.018Z,11.8
2022-10-11T04:26:28.458Z,11.1
2022-10-11T04:28:45.548Z,11.3
2022-10-11T04:31:02.690Z,12.6
2022-10-11T04:33:19.440Z,11.9
2022-10-11T04:35:36.541Z,8.3
2022-10-11T04:37:53.844Z,12
2022-10-11T04:40:11.050Z,11.6
2022-10-11T04:42:28.297Z,11.8
2022-10-11T04:44:45.607Z,12.3
2022-10-11T04:47:02.825Z,11.8
2022-10-11T04:49:19.592Z,11.5
2022-10-11T04:51:36.705Z,8.3
2022-10-11T04:53:53.972Z,11.7
2022-10-11T04:56:11.253Z,12.1
2022-10-11T04:58:28.493Z,12.1
2022-10-11T05:00:45.924Z,11.6
2022-10-11T05:03:03.002Z,11.9
2022-10-11T05:05:20.172Z,12.4
2022-10-11T05:07:37.436Z,11.5
2022-10-11T05:09:54.696Z,11.9
2022-10-11T05:12:12.241Z,11.4
2022-10-11T05:14:29.288Z,12.2
2022-10-11T05:16:46.485Z,11.6
2022-10-11T05:19:03.697Z,10.8
2022-10-11T05:21:20.912Z,11.8
2022-10-11T05:23:38.103Z,12.6
2022-10-11T05:25:55.298Z,11.6
2022-10-11T05:28:12.060Z,12.6
2022-10-11T05:30:29.166Z,8.9
2022-10-11T05:32:46.395Z,11.8
2022-10-11T05:35:03.736Z,13.1
2022-10-11T05:37:21.088Z,12.9
2022-10-11T05:39:38.309Z,12.6
2022-10-11T05:41:54.970Z,13.3
2022-10-11T05:44:11.877Z,9.2
2022-10-11T05:46:29.042Z,9.6
2022-10-11T05:48:46.555Z,13.8
2022-10-11T05:51:03.982Z,12.8
2022-10-11T05:53:21.580Z,13.4
2022-10-11T05:55:38.767Z,13.1
2022-10-11T05:57:56.488Z,13.4
2022-10-11T06:00:13.492Z,12.1
2022-10-11T06:02:30.251Z,13.3
2022-10-11T06:04:47.606Z,9.7
2022-10-11T06:07:04.569Z,13.6
2022-10-11T06:09:21.947Z,9.7
2022-10-11T06:11:39.326Z,13
2022-10-11T06:13:56.725Z,13.2
2022-10-11T06:16:14.134Z,13.9
2022-10-11T06:18:31.399Z,13
2022-10-11T06:20:48.706Z,12.9
2022-10-11T06:23:05.921Z,13
2022-10-11T06:25:23.391Z,13.4
2022-10-11T06:27:40.754Z,12.9
2022-10-11T06:29:58.194Z,11.9
2022-10-11T06:32:14.888Z,12.6
2022-10-11T06:34:32.272Z,9.3
2022-10-11T06:36:49.536Z,13.1
2022-10-11T06:39:07.075Z,12.8
2022-10-11T06:41:24.256Z,13.4
2022-10-11T06:43:41.682Z,12.9
2022-10-11T06:45:58.184Z,9.3
2022-10-11T06:48:15.211Z,9.4
2022-10-11T06:50:58.310Z,12.8
2022-10-11T06:53:04.126Z,13.4
2022-10-11T06:55:21.217Z,13.1
2022-10-11T06:57:38.490Z,13.5
2022-10-11T06:59:55.280Z,13.9
2022-10-11T07:02:13.153Z,9.6
2022-10-11T07:04:29.161Z,10.1
2022-10-11T07:06:46.560Z,13.4
2022-10-11T07:09:03.609Z,13.5
2022-10-11T07:11:20.573Z,9.6
2022-10-11T07:13:38.000Z,13
2022-10-11T07:15:55.254Z,12.8
2022-10-11T07:18:12.459Z,12.8
2022-10-11T07:20:29.813Z,12.9
2022-10-11T07:22:47.028Z,12.8
2022-10-11T07:25:04.231Z,13.4
2022-10-11T07:27:21.441Z,12.9
2022-10-11T07:29:38.687Z,13.8
2022-10-11T07:31:56.010Z,13.3
2022-10-11T07:34:13.215Z,13.5
2022-10-11T07:36:29.993Z,13.4
2022-10-11T07:38:47.170Z,10
2022-10-11T07:41:04.490Z,13.6
2022-10-11T07:43:21.747Z,13.5
2022-10-11T07:45:38.933Z,13.8
2022-10-11T07:47:55.773Z,13.5
2022-10-11T07:50:12.958Z,9.8
2022-10-11T07:52:30.247Z,13.4
2022-10-11T07:54:47.714Z,12.8
2022-10-11T07:57:04.831Z,14
2022-10-11T07:59:22.348Z,12.8
2022-10-11T08:01:39.398Z,13.8
2022-10-11T08:03:56.782Z,13.9
2022-10-11T08:06:13.836Z,14.4
2022-10-11T08:08:31.174Z,13.6
2022-10-11T08:10:48.451Z,14.1
2022-10-11T08:13:05.174Z,13.5
2022-10-11T08:15:22.194Z,10.9
2022-10-11T08:17:39.618Z,14.7
2022-10-11T08:19:56.879Z,14.7
2022-10-11T08:22:14.151Z,14.5
2022-10-11T08:24:34.669Z,14.8
2022-10-11T08:26:48.729Z,14.5
2022-10-11T08:29:05.916Z,14.4
2022-10-11T08:31:23.176Z,14.6
2022-10-11T08:33:40.422Z,14.7
2022-10-11T08:35:57.720Z,15.3
2022-10-11T08:38:14.900Z,15.8
2022-10-11T08:40:35.237Z,15.1
2022-10-11T08:42:49.475Z,15.4
2022-10-11T08:45:17.823Z,14.9
2022-10-11T08:47:34.488Z,15.1
2022-10-11T08:49:51.298Z,11.4
2022-10-11T08:52:08.538Z,11.3
2022-10-11T08:54:25.736Z,15.5
2022-10-11T08:56:43.037Z,15.6
2022-10-11T08:59:00.361Z,15.7
2022-10-11T09:01:17.650Z,15.5
2022-10-11T09:03:46.374Z,15.1
2022-10-11T09:06:04.186Z,15.9
2022-10-11T09:08:20.536Z,15.6
2022-10-11T09:10:37.688Z,12
2022-10-11T09:12:54.756Z,15.7
2022-10-11T09:15:11.714Z,15.1
2022-10-11T09:17:28.787Z,11.9
2022-10-11T09:19:46.138Z,15.3
2022-10-11T09:22:03.964Z,15.1
2022-10-11T09:24:21.066Z,15
2022-10-11T09:26:38.489Z,14.7
2022-10-11T09:29:10.987Z,15.5
2022-10-11T09:31:28.284Z,14.6
2022-10-11T09:33:45.360Z,15.1
2022-10-11T09:36:02.949Z,15.2
2022-10-11T09:38:19.598Z,15.3
2022-10-11T09:40:36.147Z,12.1
2022-10-11T09:42:53.274Z,12.3
2022-10-11T09:45:10.423Z,16.1
2022-10-11T09:47:27.468Z,13
2022-10-11T09:49:44.767Z,17.2
2022-10-11T09:52:02.061Z,17.4
2022-10-11T09:54:19.338Z,17.5
2022-10-11T09:56:36.870Z,18.8
2022-10-11T09:58:53.871Z,18.9
2022-10-11T10:01:11.215Z,19
2022-10-11T10:03:28.439Z,19.8
2022-10-11T10:05:45.633Z,20.1
2022-10-11T10:08:04.693Z,19.9
2022-10-11T10:10:19.951Z,19.2
2022-10-11T10:12:37.888Z,19.3
2022-10-11T10:14:54.531Z,20.6
2022-10-11T10:17:11.595Z,20.7
2022-10-11T10:19:28.996Z,21.6
2022-10-11T10:21:46.174Z,20.9
2022-10-11T10:24:03.356Z,22.3
2022-10-11T10:26:20.787Z,23.6
2022-10-11T10:28:37.813Z,23.8
2022-10-11T10:30:54.570Z,23.8
2022-10-11T10:33:31.077Z,19.4
2022-10-11T10:35:48.380Z,23.1
2022-10-11T10:38:05.694Z,23.9
2022-10-11T10:40:22.939Z,23.8
2022-10-11T10:42:40.294Z,24.1
2022-10-11T10:44:57.630Z,23.9
2022-10-11T10:47:14.702Z,24.3
2022-10-11T10:50:22.030Z,24.8
2022-10-11T10:52:39.529Z,23.4
2022-10-11T10:54:56.805Z,23.5
2022-10-11T10:57:13.716Z,24.3
2022-10-11T10:59:30.999Z,23.9
2022-10-11T11:01:48.253Z,23.2
2022-10-11T11:04:14.429Z,21.4
2022-10-11T11:06:34.113Z,20.9
2022-10-11T11:08:48.635Z,20.8
2022-10-11T11:11:05.775Z,22.7
2022-10-11T11:13:22.853Z,22.3
2022-10-11T11:15:39.644Z,21.8
2022-10-11T11:17:56.708Z,22.2
2022-10-11T11:20:13.613Z,21.8
2022-10-11T11:22:32.800Z,20.4
2022-10-11T11:24:47.523Z,20.6
2022-10-11T11:27:04.426Z,20.9
2022-10-11T11:29:21.410Z,21.2
2022-10-11T11:31:39.037Z,21.4
2022-10-11T11:33:55.584Z,20.4
2022-10-11T11:36:12.153Z,19.7
2022-10-11T11:38:29.804Z,19.9
2022-10-11T11:40:46.019Z,20.2
2022-10-11T11:43:03.132Z,19.3
2022-10-11T11:45:19.846Z,19.8
2022-10-11T11:47:37.639Z,20.1
2022-10-11T11:49:53.787Z,20.2
2022-10-11T11:52:10.661Z,20.1
2022-10-11T11:54:27.581Z,20.4
2022-10-11T11:56:44.556Z,20.3
2022-10-11T11:59:01.780Z,20.6
2022-10-11T12:01:18.432Z,20.9
2022-10-11T12:03:39.241Z,20.2
2022-10-11T12:05:52.216Z,19.5
2022-10-11T12:08:18.923Z,18.8
2022-10-11T12:10:35.813Z,19.2
2022-10-11T12:12:52.615Z,18.9
2022-10-11T12:15:09.627Z,18.8
2022-10-11T12:17:26.532Z,18.9
2022-10-11T12:19:43.435Z,19.1
2022-10-11T12:22:00.391Z,19.5
2022-10-11T12:24:17.552Z,18.8
2022-10-11T12:26:34.157Z,19.1
2022-10-11T12:28:51.064Z,18.4
2022-10-11T12:31:09.288Z,17.8
2022-10-11T12:33:24.999Z,18.2
2022-10-11T12:35:41.981Z,16.8
2022-10-11T12:37:59.101Z,17.4
2022-10-11T12:40:16.333Z,16.6
2022-10-11T12:42:33.697Z,15.9
2022-10-11T12:44:50.555Z,15.5
2022-10-11T12:47:07.553Z,17.6
2022-10-11T12:49:24.226Z,15.7
2022-10-11T12:51:41.045Z,12.3
2022-10-11T12:54:21.828Z,12.4
2022-10-11T12:56:29.695Z,12.4
2022-10-11T12:58:46.924Z,12.8
2022-10-11T13:01:04.285Z,15.3
2022-10-11T13:03:21.598Z,15.5
2022-10-11T13:05:41.982Z,15.5
2022-10-11T13:07:55.073Z,12.1
2022-10-11T13:10:11.903Z,12.4
2022-10-11T13:12:29.308Z,12.6
2022-10-11T13:14:46.586Z,15.7
2022-10-11T13:17:03.435Z,15.4
2022-10-11T13:19:20.591Z,11.8
2022-10-11T13:21:38.106Z,15.6
2022-10-11T13:23:54.301Z,12.4
2022-10-11T13:26:12.071Z,11.8
2022-10-11T13:28:30.720Z,12.6
2022-10-11T13:30:46.024Z,15.7
2022-10-11T13:33:02.922Z,15.4
2022-10-11T13:35:22.362Z,12.1
2022-10-11T13:37:37.653Z,15.4
2022-10-11T13:39:54.943Z,15.2
2022-10-11T13:42:12.485Z,15
2022-10-11T13:44:29.709Z,15.1
2022-10-11T13:46:47.261Z,15.3
2022-10-11T13:49:04.562Z,15.4
2022-10-11T13:51:22.038Z,15.1
2022-10-11T13:53:39.215Z,15.3
2022-10-11T13:55:56.785Z,15.4
2022-10-11T13:58:18.482Z,15.1
2022-10-11T14:00:31.417Z,15.3
2022-10-11T14:02:48.766Z,14.5
2022-10-11T14:05:05.584Z,14.8
2022-10-11T14:07:22.843Z,11.8
2022-10-11T14:09:40.482Z,15.3
2022-10-11T14:11:57.779Z,11.7
2022-10-11T14:14:14.404Z,15.4
2022-10-11T14:16:31.472Z,15.3
2022-10-11T14:18:48.651Z,11.5
2022-10-11T14:21:06.753Z,15.1
2022-10-11T14:23:23.292Z,15.1
2022-10-11T14:25:40.518Z,15.2
2022-10-11T14:27:58.077Z,15.4
2022-10-11T14:30:34.516Z,15.6
2022-10-11T14:32:52.062Z,11.6
2022-10-11T14:35:09.433Z,15.3
2022-10-11T14:37:26.684Z,15.3
2022-10-11T14:39:43.978Z,14.9
2022-10-11T14:42:01.134Z,15
2022-10-11T14:44:18.395Z,15.3
2022-10-11T14:46:36.041Z,14.9
2022-10-11T14:49:07.959Z,14.8
2022-10-11T14:51:25.103Z,14.6
2022-10-11T14:53:42.422Z,14.5
2022-10-11T14:55:59.590Z,15
2022-10-11T14:58:16.788Z,14.4
2022-10-11T15:00:34.090Z,15
2022-10-11T15:02:51.365Z,14.6
2022-10-11T15:05:08.570Z,14.1
2022-10-11T15:07:25.772Z,14.6
2022-10-11T15:09:43.234Z,14.8
2022-10-11T15:12:00.433Z,14.7
2022-10-11T15:14:17.679Z,15.3
2022-10-11T15:16:34.768Z,14.2
2022-10-11T15:18:52.121Z,14
2022-10-11T15:21:09.354Z,14.5
2022-10-11T15:23:26.495Z,14.5
2022-10-11T15:25:43.787Z,13.9
2022-10-11T15:28:01.067Z,14.4
2022-10-11T15:30:18.504Z,14.2
2022-10-11T15:32:35.633Z,13.9
2022-10-11T15:34:52.931Z,14.4
2022-10-11T15:37:10.128Z,14.6
2022-10-11T15:39:27.344Z,14.6
2022-10-11T15:41:44.649Z,14.3
2022-10-11T15:44:01.898Z,13.8
2022-10-11T15:46:19.225Z,13.9
2022-10-11T15:48:36.434Z,14.5
2022-10-11T15:50:53.356Z,14.1
2022-10-11T15:53:10.394Z,10.3
2022-10-11T15:55:27.726Z,14
2022-10-11T15:57:44.908Z,14.5
2022-10-11T16:00:01.867Z,10.5
2022-10-11T16:02:19.120Z,13.7
2022-10-11T16:04:36.461Z,13.7
2022-10-11T16:06:53.857Z,14.2
2022-10-11T16:09:11.299Z,13.6
2022-10-11T16:11:28.582Z,13.5
2022-10-11T16:13:46.106Z,13.6
2022-10-11T16:16:03.671Z,13.8
2022-10-11T16:18:21.038Z,13.4
2022-10-11T16:20:38.061Z,14.6
2022-10-11T16:22:55.469Z,12.9
2022-10-11T16:25:12.902Z,13.6
2022-10-11T16:27:30.439Z,13.5
2022-10-11T16:29:47.240Z,13.8
2022-10-11T16:32:04.246Z,10
2022-10-11T16:34:21.631Z,13.9
2022-10-11T16:36:39.405Z,10.1
2022-10-11T16:38:56.365Z,14.1
2022-10-11T16:41:13.257Z,13.6
2022-10-11T16:43:30.964Z,9.9
2022-10-11T16:45:48.111Z,13.8
2022-10-11T16:48:05.385Z,13.8
2022-10-11T16:50:22.954Z,13.1
2022-10-11T16:52:40.172Z,13.4
2022-10-11T16:54:57.788Z,13.2
2022-10-11T16:57:15.070Z,14.1
2022-10-11T16:59:34.056Z,13.6
2022-10-11T17:01:51.138Z,13.6
2022-10-11T17:04:07.964Z,13
2022-10-11T17:06:25.124Z,9.7
2022-10-11T17:08:42.919Z,13.3
2022-10-11T17:10:59.721Z,13.3
2022-10-11T17:13:16.998Z,13
2022-10-11T17:15:34.345Z,13.3
2022-10-11T17:17:51.609Z,13.3
2022-10-11T17:20:08.957Z,13.4
2022-10-11T17:22:26.160Z,13.8
2022-10-11T17:24:43.131Z,13.6
2022-10-11T17:26:59.810Z,9.9
2022-10-11T17:29:17.360Z,9.9
2022-10-11T17:31:34.406Z,13.5
2022-10-11T17:33:51.422Z,13.2
2022-10-11T17:36:09.011Z,9.8
2022-10-11T17:38:26.093Z,13.2
2022-10-11T17:40:43.674Z,13.9
2022-10-11T17:43:01.036Z,13.4
2022-10-11T17:45:18.629Z,13.4
2022-10-11T17:47:35.949Z,13.1
2022-10-11T17:49:53.354Z,13.1
2022-10-11T17:52:10.602Z,12.6
2022-10-11T17:54:27.909Z,13.1
2022-10-11T17:56:45.444Z,14.1
2022-10-11T17:59:02.775Z,14.1
2022-10-11T18:01:20.336Z,13.5
2022-10-11T18:03:37.566Z,13.9
2022-10-11T18:05:54.998Z,13.8
2022-10-11T18:08:12.383Z,13.1
2022-10-11T18:10:29.854Z,13.6
2022-10-11T18:12:47.081Z,13.9
2022-10-11T18:15:04.875Z,13.3
2022-10-11T18:17:21.953Z,13.5
2022-10-11T18:19:39.230Z,13.5
2022-10-11T18:21:56.688Z,12.7
2022-10-11T18:24:13.994Z,12.9
2022-10-11T18:26:31.619Z,13.3
2022-10-11T18:28:49.063Z,13.1
2022-10-11T18:31:10.101Z,12.2
2022-10-11T18:33:23.729Z,13.3
2022-10-11T18:35:41.349Z,13
2022-10-11T18:38:00.842Z,13.4
2022-10-11T18:40:15.782Z,13.4
2022-10-11T18:42:33.423Z,13.6
2022-10-11T18:44:50.681Z,13.5
2022-10-11T18:47:08.318Z,13.9
2022-10-11T18:49:25.516Z,12.7
2022-10-11T18:51:42.932Z,13
2022-10-11T18:54:00.252Z,13.3
2022-10-11T18:56:17.877Z,13.3
2022-10-11T18:58:35.177Z,14.1
2022-10-11T19:00:57.731Z,13.4
2022-10-11T19:03:14.421Z,13.9
2022-10-11T19:05:31.553Z,9.9
2022-10-11T19:07:48.830Z,13.6
2022-10-11T19:10:06.223Z,12.8
2022-10-11T19:12:23.545Z,12.9
2022-10-11T19:14:40.765Z,13.3
2022-10-11T19:16:58.133Z,13.5
2022-10-11T19:19:15.540Z,13.8
2022-10-11T19:21:32.722Z,12.9
2022-10-11T19:23:50.010Z,13.4
2022-10-11T19:26:07.872Z,13.7
2022-10-11T19:28:24.657Z,13.8
2022-10-11T19:30:41.939Z,13
2022-10-11T19:32:59.228Z,13.5
2022-10-11T19:35:19.894Z,14
2022-10-11T19:37:33.693Z,13.7
2022-10-11T19:39:50.562Z,9.6
2022-10-11T19:42:07.947Z,13.2
2022-10-11T19:44:25.300Z,13.3
2022-10-11T19:46:55.779Z,13.1
2022-10-11T19:49:13.222Z,13.2
2022-10-11T19:51:30.381Z,9.3
2022-10-11T19:53:47.874Z,12.8
2022-10-11T19:56:05.289Z,12.7
2022-10-11T19:58:22.756Z,12.3
2022-10-11T20:00:40.145Z,12.6
2022-10-11T20:02:57.255Z,12.9
2022-10-11T20:05:29.514Z,8.9
2022-10-11T20:07:46.877Z,9.1
2022-10-11T20:10:16.092Z,12.8
2022-10-11T20:12:33.704Z,12.4
2022-10-11T20:14:50.846Z,12.2
2022-10-11T20:17:08.206Z,13.3
2022-10-11T20:19:30.345Z,12
2022-10-11T20:21:42.810Z,12.8
2022-10-11T20:24:00.175Z,12.4
2022-10-11T20:26:17.412Z,12.2
2022-10-11T20:28:34.767Z,12.6
2022-10-11T20:30:52.077Z,12.9
2022-10-11T20:33:09.347Z,12.6
2022-10-11T20:35:26.811Z,12.4
2022-10-11T20:37:43.833Z,12.9
2022-10-11T20:40:00.812Z,9.1
2022-10-11T20:42:18.252Z,12.9
2022-10-11T20:44:35.572Z,12.4
2022-10-11T20:46:52.855Z,12
2022-10-11T20:49:10.377Z,12.8
2022-10-11T20:51:27.410Z,12.7
2022-10-11T20:53:44.908Z,12.8
2022-10-11T20:56:02.662Z,12.4
2022-10-11T20:58:19.409Z,13.1
2022-10-11T21:00:36.769Z,12.9
2022-10-11T21:02:54.147Z,12.8
2022-10-11T21:05:11.273Z,12.7
2022-10-11T21:07:28.614Z,13
2022-10-11T21:09:45.839Z,12.9
2022-10-11T21:12:03.233Z,12.9
2022-10-11T21:14:20.520Z,12.8
2022-10-11T21:16:37.959Z,12.6
2022-10-11T21:18:55.144Z,12.7
2022-10-11T21:21:12.427Z,13.3
2022-10-11T21:23:29.963Z,12
2022-10-11T21:25:47.141Z,13.6
2022-10-11T21:28:04.441Z,12.1
2022-10-11T21:30:22.268Z,12.9
2022-10-11T21:32:38.730Z,12.5
2022-10-11T21:34:55.774Z,8.9
2022-10-11T21:37:13.220Z,12.6
2022-10-11T21:39:30.537Z,12.4
2022-10-11T21:41:47.483Z,11.7
2022-10-11T21:44:04.625Z,8.9
2022-10-11T21:46:21.998Z,12
2022-10-11T21:48:55.261Z,12.3
2022-10-11T21:51:12.022Z,12.7
2022-10-11T21:53:29.189Z,8.9
2022-10-11T21:55:47.157Z,12.6
2022-10-11T21:58:03.947Z,12.2
2022-10-11T22:00:21.503Z,12.1
2022-10-11T22:02:38.643Z,12.3
2022-10-11T22:04:56.040Z,12
2022-10-11T22:07:13.300Z,12.5
2022-10-11T22:09:30.601Z,12
2022-10-11T22:11:47.978Z,12.3
2022-10-11T22:14:05.348Z,11.9
2022-10-11T22:16:22.213Z,12.4
2022-10-11T22:18:39.373Z,8.7
2022-10-11T22:20:56.793Z,12.3
2022-10-11T22:23:14.241Z,12.3
2022-10-11T22:25:31.530Z,12
2022-10-11T22:27:48.814Z,12.4
2022-10-11T22:30:06.091Z,13.1
2022-10-11T22:32:23.480Z,12.6
2022-10-11T22:34:41.095Z,11.6
2022-10-11T22:36:58.232Z,13.5
2022-10-11T22:39:15.409Z,11.6
2022-10-11T22:41:32.747Z,12.3
2022-10-11T22:43:50.065Z,11.9
2022-10-11T22:46:07.271Z,12.1
2022-10-11T22:48:24.609Z,12.1
2022-10-11T22:50:41.929Z,12.5
2022-10-11T22:52:59.253Z,12.4
2022-10-11T22:55:20.050Z,11.9
2022-10-11T22:57:34.266Z,11.8
2022-10-11T22:59:51.316Z,12.1
2022-10-11T23:02:08.672Z,12
2022-10-11T23:04:25.897Z,12.5
2022-10-11T23:06:43.272Z,12.1
2022-10-11T23:09:00.514Z,12.4
2022-10-11T23:11:17.856Z,11.8
2022-10-11T23:13:35.172Z,11.4
2022-10-11T23:15:52.566Z,12.6
2022-10-11T23:18:09.439Z,11.4
2022-10-11T23:20:26.816Z,8.4
2022-10-11T23:22:43.951Z,12.7
2022-10-11T23:25:01.310Z,12.6
2022-10-11T23:27:18.647Z,12
2022-10-11T23:29:35.965Z,11.9
2022-10-11T23:31:53.321Z,11.5
2022-10-11T23:34:10.554Z,12.5
2022-10-11T23:36:28.060Z,11.4
2022-10-11T23:38:45.360Z,11.3
2022-10-11T23:41:02.504Z,11.7
2022-10-11T23:43:19.533Z,12.1
2022-10-11T23:45:36.471Z,8.6
2022-10-11T23:47:53.546Z,8.6
2022-10-11T23:50:10.950Z,12
2022-10-11T23:52:28.335Z,12
2022-10-11T23:54:45.746Z,12.1
2022-10-11T23:57:02.989Z,12.1
2022-10-11T23:59:20.574Z,11.6
